Time;durP1;ratioP1;P1;durP2;ratioP2;P2;SDS_P1;SDS_P2;PMS_P1;PMS_P2;Temp;Humidity;BMP_temperature;BMP_pressure;BME280_temperature;BME280_humidity;BME280_pressure;Samples;Min_cycle;Max_cycle;Signal;HPM_P1;HPM_P2
2022/09/02 00:02:12;;;;;;;;;8.67;7.00;;;;;25.72;33.26;100762.03;5114836;27;45093;-68
2022/09/02 00:04:37;;;;;;;;;7.33;6.00;;;;;25.34;33.44;100689.53;5120973;27;45415;-70
2022/09/02 00:07:03;;;;;;;;;7.67;5.67;;;;;25.74;33.74;100762.84;5118333;27;45332;-71
2022/09/02 00:09:28;;;;;;;;;6.33;6.00;;;;;25.73;33.67;100749.22;5112283;27;45201;-71
2022/09/02 00:11:55;;;;;;;;;5.33;4.67;;;;;25.70;33.62;100747.47;5118178;27;45928;-71
2022/09/02 00:14:34;;;;;;;;;8.67;6.00;;;;;25.53;33.97;100723.47;5118092;27;45310;-72
2022/09/02 00:17:00;;;;;;;;;9.33;6.33;;;;;25.65;33.93;100738.53;5114884;27;45220;-69
2022/09/02 00:19:26;;;;;;;;;7.67;6.00;;;;;25.63;34.08;100748.66;5117439;27;45617;-69
2022/09/02 00:21:54;;;;;;;;;6.33;6.33;;;;;25.43;34.10;100712.94;5116121;27;45444;-69
2022/09/02 00:24:21;;;;;;;;;3.33;3.33;;;;;25.58;34.14;100742.47;5114046;27;45242;-69
2022/09/02 00:26:47;;;;;;;;;8.33;8.33;;;;;25.58;33.82;100739.72;5114934;27;46030;-67
2022/09/02 00:29:14;;;;;;;;;7.67;7.67;;;;;25.44;34.06;100714.69;5112400;27;45643;-70
2022/09/02 00:31:41;;;;;;;;;6.33;6.00;;;;;25.52;34.51;100731.72;5119860;27;44949;-71
2022/09/02 00:34:08;;;;;;;;;5.67;5.67;;;;;25.48;34.26;100727.34;5115602;27;45399;-72
2022/09/02 00:36:33;;;;;;;;;9.00;7.33;;;;;25.43;34.67;100723.88;5115069;27;45165;-70
2022/09/02 00:38:59;;;;;;;;;3.00;3.00;;;;;25.41;34.91;100723.00;5129535;27;46120;-70
2022/09/02 00:41:27;;;;;;;;;8.33;7.00;;;;;25.40;34.97;100723.97;5123940;27;45098;-72
2022/09/02 00:43:58;;;;;;;;;7.67;6.00;;;;;25.39;35.05;100734.00;5120052;27;45112;-72
2022/09/02 00:46:25;;;;;;;;;6.33;6.33;;;;;25.19;34.76;100694.56;5115244;27;45582;-69
2022/09/02 00:48:56;;;;;;;;;6.00;4.33;;;;;25.34;34.99;100715.06;5119256;27;45355;-69
2022/09/02 00:51:22;;;;;;;;;6.33;6.33;;;;;25.18;35.11;100687.31;5121244;27;45130;-71
2022/09/02 00:53:49;;;;;;;;;6.67;6.00;;;;;25.19;35.53;100704.59;5118990;27;45141;-72
2022/09/02 00:56:22;;;;;;;;;6.33;6.33;;;;;25.22;35.31;100717.28;5113721;27;45087;-68
2022/09/02 00:58:49;;;;;;;;;6.67;5.67;;;;;25.22;36.09;100728.22;5116799;27;45026;-71
2022/09/02 01:01:15;;;;;;;;;7.33;6.00;;;;;25.20;36.01;100723.69;5120134;27;45241;-69
2022/09/02 01:03:41;;;;;;;;;7.00;7.00;;;;;25.11;35.81;100710.34;5115244;27;45129;-67
2022/09/02 01:06:10;;;;;;;;;4.67;4.67;;;;;25.16;35.85;100719.28;5117332;27;44971;-71
2022/09/02 01:08:38;;;;;;;;;9.67;8.00;;;;;25.15;35.92;100720.22;5118748;27;46484;-68
2022/09/02 01:11:04;;;;;;;;;7.67;6.00;;;;;25.01;35.88;100696.09;5119392;27;45107;-71
2022/09/02 01:13:34;;;;;;;;;8.33;7.67;;;;;25.13;36.16;100719.38;5112744;27;45103;-68
2022/09/02 01:16:32;;;;;;;;;7.00;7.00;;;;;25.13;36.16;100716.66;5121455;27;44979;-71
2022/09/02 01:19:00;;;;;;;;;6.67;6.67;;;;;25.00;36.13;100693.44;5118871;27;45615;-68
2022/09/02 01:21:26;;;;;;;;;5.33;5.33;;;;;24.97;36.01;100691.69;5121241;27;45400;-68
2022/09/02 01:23:52;;;;;;;;;4.33;4.33;;;;;25.11;36.29;100720.38;5118383;27;45288;-71
2022/09/02 01:26:18;;;;;;;;;6.00;5.00;;;;;24.98;36.18;100698.06;5114868;27;45173;-68
2022/09/02 01:28:44;;;;;;;;;6.00;6.00;;;;;24.70;35.87;100657.09;5115585;27;44989;-66
2022/09/02 01:31:09;;;;;;;;;5.00;5.00;;;;;25.04;36.26;100714.22;5112605;27;45056;-71
2022/09/02 01:33:35;;;;;;;;;7.67;6.00;;;;;24.96;36.44;100702.66;5118915;27;44971;-68
2022/09/02 01:36:03;;;;;;;;;7.67;7.67;;;;;24.95;36.26;100701.78;5115215;27;45078;-73
2022/09/02 01:38:28;;;;;;;;;6.33;5.67;;;;;25.00;36.25;100709.81;5111772;27;46709;-70
2022/09/02 01:40:53;;;;;;;;;6.33;5.33;;;;;24.96;36.65;100713.59;5119898;27;45082;-71
2022/09/02 01:43:22;;;;;;;;;6.33;4.67;;;;;24.97;36.43;100709.94;5118410;27;44939;-72
2022/09/02 01:45:51;;;;;;;;;7.00;7.00;;;;;24.88;36.82;100710.22;5124201;27;45118;-72
2022/09/02 01:48:16;;;;;;;;;7.00;7.00;;;;;24.86;36.95;100704.81;5120603;27;46713;-70
2022/09/02 01:50:49;;;;;;;;;5.00;5.00;;;;;24.84;36.67;100706.72;5113341;27;45287;-70
2022/09/02 01:53:15;;;;;;;;;5.00;5.00;;;;;24.87;36.57;100703.00;5122892;27;45172;-69
2022/09/02 01:55:40;;;;;;;;;5.67;5.67;;;;;24.79;37.15;100689.56;5118791;27;44985;-70
2022/09/02 01:58:05;;;;;;;;;8.67;5.00;;;;;24.70;36.83;100673.47;5119162;27;45505;-70
2022/09/02 02:00:31;;;;;;;;;5.00;5.00;;;;;24.85;37.31;100694.84;5114926;27;44995;-72
2022/09/02 02:02:56;;;;;;;;;6.33;6.33;;;;;24.88;37.05;100699.28;5122762;27;45257;-70
2022/09/02 02:05:22;;;;;;;;;7.33;7.00;;;;;24.89;37.31;100706.56;5117014;27;45305;-67
2022/09/02 02:07:48;;;;;;;;;5.00;4.67;;;;;24.91;37.15;100724.69;5123628;27;46776;-70
2022/09/02 02:10:17;;;;;;;;;10.00;8.00;;;;;24.87;37.02;100766.72;5119199;27;45126;-70
2022/09/02 02:12:43;;;;;;;;;8.67;8.33;;;;;24.72;37.24;100754.47;5116143;27;45005;-70
2022/09/02 02:15:13;;;;;;;;;8.67;8.67;;;;;24.68;37.76;100728.16;5122835;27;45732;-71
2022/09/02 02:17:39;;;;;;;;;10.33;6.33;;;;;24.68;37.81;100771.00;5121881;27;45371;-70
2022/09/02 02:20:06;;;;;;;;;8.00;6.33;;;;;24.63;37.49;100762.94;5116936;27;44934;-70
2022/09/02 02:22:31;;;;;;;;;7.00;7.00;;;;;24.55;37.61;100696.69;5130173;27;44967;-70
2022/09/02 02:24:56;;;;;;;;;5.33;5.33;;;;;23.14;37.87;100481.88;5119956;27;45337;-71
2022/09/02 02:27:22;;;;;;;;;8.00;6.33;;;;;24.57;38.01;100755.84;5128192;27;45537;-67
2022/09/02 02:29:48;;;;;;;;;10.67;7.00;;;;;24.50;37.83;100720.53;5116016;27;46229;-72
2022/09/02 02:32:13;;;;;;;;;6.33;4.67;;;;;24.57;37.97;100741.31;5115929;27;45173;-68
2022/09/02 02:34:39;;;;;;;;;7.67;7.67;;;;;24.56;37.45;100742.25;5123210;27;45297;-73
2022/09/02 02:37:04;;;;;;;;;6.00;6.00;;;;;24.52;38.03;100724.09;5121383;27;45060;-68
2022/09/02 02:39:30;;;;;;;;;7.00;6.00;;;;;24.61;38.08;100742.97;5119074;27;44959;-70
2022/09/02 02:41:55;;;;;;;;;8.33;6.00;;;;;24.48;37.71;100706.94;5113886;27;45049;-68
2022/09/02 02:44:21;;;;;;;;;8.00;8.00;;;;;24.55;37.92;100732.22;5119333;27;45123;-70
2022/09/02 02:46:46;;;;;;;;;7.33;6.33;;;;;24.55;37.80;100748.59;5130134;27;45491;-73
2022/09/02 02:49:11;;;;;;;;;5.33;5.33;;;;;24.56;38.18;100739.50;5122753;27;45233;-67
2022/09/02 02:51:38;;;;;;;;;8.00;6.33;;;;;24.54;38.25;100738.63;5116550;27;45246;-69
2022/09/02 02:54:03;;;;;;;;;9.00;6.33;;;;;24.42;37.97;100712.63;5120251;27;45184;-72
2022/09/02 02:56:29;;;;;;;;;9.00;6.67;;;;;24.56;37.93;100732.19;5120109;27;45169;-69
2022/09/02 02:58:56;;;;;;;;;5.67;4.67;;;;;24.55;38.16;100732.22;5116811;27;45137;-67
2022/09/02 03:01:21;;;;;;;;;7.33;7.00;;;;;24.55;37.82;100729.47;5121735;27;45046;-72
2022/09/02 03:03:47;;;;;;;;;12.33;10.67;;;;;24.56;38.35;100729.47;5116924;27;45038;-67
2022/09/02 03:06:12;;;;;;;;;8.00;8.00;;;;;24.36;38.74;100694.56;5114755;27;45563;-69
2022/09/02 03:08:38;;;;;;;;;17.00;16.33;;;;;24.34;38.64;100698.31;5112483;27;45019;-69
2022/09/02 03:11:05;;;;;;;;;20.00;17.50;;;;;24.41;38.36;100724.47;5119977;27;45025;-68
2022/09/02 03:13:32;;;;;;;;;30.75;22.00;;;;;24.15;39.04;100687.94;5124746;27;45470;-67
2022/09/02 03:15:57;;;;;;;;;25.50;22.00;;;;;24.34;38.94;100715.56;5124957;27;45401;-69
2022/09/02 03:18:22;;;;;;;;;24.50;23.00;;;;;24.26;39.08;100709.47;5121556;27;45094;-70
2022/09/02 03:20:48;;;;;;;;;24.25;17.25;;;;;24.31;39.44;100717.50;5114858;27;45099;-67
2022/09/02 03:23:13;;;;;;;;;22.33;17.00;;;;;24.29;39.45;100712.97;5117704;27;45243;-71
2022/09/02 03:25:42;;;;;;;;;15.33;14.33;;;;;24.26;39.88;100701.28;5127663;27;45137;-69
2022/09/02 03:28:07;;;;;;;;;16.33;14.67;;;;;24.25;39.98;100710.38;5119646;27;45274;-70
2022/09/02 03:30:34;;;;;;;;;11.33;10.33;;;;;24.09;40.50;100689.03;5119674;27;45140;-69
2022/09/02 03:33:01;;;;;;;;;11.67;11.67;;;;;24.13;40.62;100702.59;5118022;27;45320;-69
2022/09/02 03:35:28;;;;;;;;;12.33;8.00;;;;;24.19;41.26;100706.03;5120239;27;45486;-68
2022/09/02 03:37:54;;;;;;;;;9.33;8.00;;;;;24.05;41.46;100690.06;5120063;27;46535;-68
2022/09/02 03:40:23;;;;;;;;;7.00;7.00;;;;;24.08;41.32;100697.28;5115728;27;45078;-72
2022/09/02 03:42:49;;;;;;;;;13.00;9.00;;;;;24.09;41.63;100699.06;5119128;27;45257;-72
2022/09/02 03:45:16;;;;;;;;;12.00;10.67;;;;;24.00;41.35;100683.84;5119912;27;45798;-68
2022/09/02 03:47:49;;;;;;;;;10.67;10.67;;;;;23.99;42.11;100679.34;5125400;27;45641;-72
2022/09/02 03:50:21;;;;;;;;;17.33;15.00;;;;;23.99;42.25;100687.53;5121052;27;45250;-69
2022/09/02 03:52:47;;;;;;;;;18.00;15.00;;;;;23.85;42.98;100671.56;5125682;27;45110;-69
2022/09/02 03:55:13;;;;;;;;;19.33;16.33;;;;;23.91;43.36;100678.69;5121184;27;45559;-67
2022/09/02 03:57:38;;;;;;;;;21.75;19.75;;;;;23.87;43.58;100675.16;5117159;27;45142;-68
2022/09/02 04:00:10;;;;;;;;;18.00;15.67;;;;;23.81;43.94;100674.38;5125458;27;45194;-70
2022/09/02 04:02:35;;;;;;;;;19.67;14.00;;;;;23.81;44.80;100672.56;5116451;27;44952;-66
2022/09/02 04:05:01;;;;;;;;;12.33;12.33;;;;;23.66;45.13;100637.53;5120796;27;45678;-68
2022/09/02 04:07:26;;;;;;;;;14.67;12.67;;;;;23.77;45.37;100669.97;5117886;27;45139;-69
2022/09/02 04:09:54;;;;;;;;;13.00;12.00;;;;;23.74;46.34;100682.78;5116045;27;45097;-67
2022/09/02 04:12:19;;;;;;;;;7.00;7.00;;;;;23.65;46.31;100672.13;5121089;27;45106;-68
2022/09/02 04:14:44;;;;;;;;;8.67;8.67;;;;;23.36;47.03;100648.41;5125753;27;45717;-72
2022/09/02 04:17:09;;;;;;;;;13.67;10.00;;;;;23.52;47.55;100677.03;5123418;27;45013;-67
2022/09/02 04:19:36;;;;;;;;;8.33;8.33;;;;;23.49;47.20;100684.41;5117121;27;45231;-67
2022/09/02 04:22:02;;;;;;;;;7.67;7.67;;;;;23.46;47.35;100687.22;5120740;27;44982;-68
2022/09/02 04:24:28;;;;;;;;;7.50;7.50;;;;;23.45;47.62;100693.63;5116373;27;45711;-67
2022/09/02 04:26:53;;;;;;;;;7.33;5.33;;;;;23.34;47.59;100674.81;5116415;27;45696;-67
2022/09/02 04:29:18;;;;;;;;;11.33;8.00;;;;;23.31;48.01;100674.91;5127335;27;55190;-71
2022/09/02 04:31:44;;;;;;;;;10.00;8.00;;;;;23.25;48.22;100662.34;5116397;27;45442;-70
2022/09/02 04:34:09;;;;;;;;;7.00;7.00;;;;;23.36;48.35;100684.75;5119018;27;47072;-69
2022/09/02 04:36:34;;;;;;;;;6.33;6.33;;;;;23.20;48.73;100658.84;5115380;27;46113;-71
2022/09/02 04:39:00;;;;;;;;;10.00;9.33;;;;;23.40;49.15;100681.94;5117644;27;45232;-67
2022/09/02 04:41:29;;;;;;;;;10.00;10.00;;;;;23.31;49.23;100669.44;5113646;27;45648;-69
2022/09/02 04:43:56;;;;;;;;;9.67;7.67;;;;;23.33;49.40;100675.78;5114273;27;45710;-70
2022/09/02 04:46:21;;;;;;;;;7.67;7.67;;;;;23.36;49.65;100675.66;5120676;27;45554;-71
2022/09/02 04:48:47;;;;;;;;;7.00;7.00;;;;;23.27;49.92;100667.75;5119776;27;47461;-69
2022/09/02 04:51:15;;;;;;;;;10.33;8.67;;;;;23.29;50.52;100688.56;5118004;27;45764;-70
2022/09/02 04:53:42;;;;;;;;;6.67;6.67;;;;;23.15;50.64;100680.78;5117544;27;45615;-68
2022/09/02 04:56:09;;;;;;;;;9.67;9.67;;;;;22.83;52.07;100635.28;5111496;27;45149;-70
2022/09/02 04:58:36;;;;;;;;;8.33;7.67;;;;;23.08;53.09;100680.97;5123183;27;45188;-69
2022/09/02 05:01:09;;;;;;;;;11.67;11.67;;;;;23.10;53.62;100706.34;5120841;27;45393;-67
2022/09/02 05:03:36;;;;;;;;;14.33;13.33;;;;;23.11;54.28;100705.44;5114903;27;46158;-71
2022/09/02 05:06:04;;;;;;;;;10.33;9.33;;;;;23.10;54.54;100706.34;5125892;27;45884;-69
2022/09/02 05:08:30;;;;;;;;;8.67;8.67;;;;;22.98;54.77;100672.13;5114431;27;45323;-69
2022/09/02 05:10:56;;;;;;;;;9.67;7.33;;;;;22.97;55.44;100667.63;5117778;27;45833;-67
2022/09/02 05:13:22;;;;;;;;;8.00;8.00;;;;;22.91;55.18;100665.94;5114372;27;45205;-68
2022/09/02 05:15:48;;;;;;;;;11.33;11.33;;;;;22.92;55.83;100672.31;5117204;27;45461;-69
2022/09/02 05:18:13;;;;;;;;;11.00;7.67;;;;;22.54;55.23;100615.16;5121239;27;45265;-70
2022/09/02 05:20:39;;;;;;;;;12.33;11.33;;;;;22.92;54.55;100685.91;5124411;27;45249;-70
2022/09/02 05:23:05;;;;;;;;;12.33;12.33;;;;;22.88;54.05;100678.75;5115877;27;45200;-71
2022/09/02 05:25:31;;;;;;;;;10.67;9.00;;;;;22.87;54.28;100669.69;5113410;27;45236;-68
2022/09/02 05:27:56;;;;;;;;;9.33;9.00;;;;;22.83;54.04;100673.41;5111812;27;45046;-70
2022/09/02 05:30:22;;;;;;;;;10.33;8.00;;;;;22.78;54.26;100667.19;5116042;27;45130;-68
2022/09/02 05:32:48;;;;;;;;;10.00;10.00;;;;;22.76;54.27;100671.78;5128954;27;49833;-71
2022/09/02 05:35:14;;;;;;;;;13.33;12.67;;;;;22.60;55.27;100649.47;5116669;27;45009;-69
2022/09/02 05:37:40;;;;;;;;;11.67;11.67;;;;;22.02;54.70;100572.84;5126290;27;46175;-68
2022/09/02 05:40:06;;;;;;;;;14.00;10.67;;;;;22.69;54.51;100683.78;5118531;27;45218;-66
2022/09/02 05:42:32;;;;;;;;;13.00;10.67;;;;;22.66;55.43;100679.28;5115678;27;45623;-67
2022/09/02 05:44:57;;;;;;;;;12.67;10.67;;;;;22.64;54.57;100682.03;5113236;27;45090;-69
2022/09/02 05:47:24;;;;;;;;;11.33;9.00;;;;;22.56;54.39;100664.13;5116675;27;45161;-72
2022/09/02 05:49:49;;;;;;;;;11.67;10.67;;;;;22.53;54.73;100659.63;5120265;27;45072;-72
2022/09/02 05:52:16;;;;;;;;;11.67;11.33;;;;;22.19;54.12;100608.72;5119699;27;45995;-69
2022/09/02 05:54:42;;;;;;;;;16.33;12.67;;;;;22.32;55.20;100631.09;5122485;27;45274;-68
2022/09/02 05:57:11;;;;;;;;;13.67;12.67;;;;;22.57;54.47;100668.59;5126877;27;45218;-69
2022/09/02 05:59:41;;;;;;;;;8.33;8.33;;;;;22.50;54.17;100664.25;5122390;27;45257;-68
2022/09/02 06:02:11;;;;;;;;;16.33;11.67;;;;;22.43;53.46;100655.34;5117479;27;45449;-69
2022/09/02 06:04:42;;;;;;;;;11.00;10.67;;;;;22.47;53.74;100653.44;5117465;27;45165;-66
2022/09/02 06:07:07;;;;;;;;;11.33;10.00;;;;;22.42;54.13;100646.28;5122498;27;45293;-73
2022/09/02 06:09:33;;;;;;;;;12.67;10.33;;;;;22.47;54.46;100662.50;5113214;27;46024;-73
2022/09/02 06:11:58;;;;;;;;;13.67;11.67;;;;;22.31;53.86;100637.50;5109206;27;46011;-67
2022/09/02 06:14:24;;;;;;;;;14.00;13.00;;;;;22.34;54.16;100641.94;5097863;27;45740;-67
2022/09/02 06:16:52;;;;;;;;;11.33;10.00;;;;;22.37;53.80;100653.69;5122249;27;45142;-72
2022/09/02 06:19:18;;;;;;;;;12.33;11.67;;;;;22.41;54.08;100682.59;5109357;27;45833;-69
2022/09/02 06:21:43;;;;;;;;;15.33;12.33;;;;;22.36;53.97;100676.38;5104129;27;46379;-73
2022/09/02 06:24:11;;;;;;;;;12.33;10.67;;;;;22.33;53.78;100665.56;5102035;27;45466;-71
2022/09/02 06:26:38;;;;;;;;;13.33;11.33;;;;;22.39;53.30;100661.78;5101352;27;45665;-72
2022/09/02 06:29:05;;;;;;;;;19.00;13.00;;;;;22.25;53.48;100652.09;5101023;27;45493;-75
2022/09/02 06:31:31;;;;;;;;;15.00;13.33;;;;;22.32;53.39;100657.44;5105542;27;45521;-67
2022/09/02 06:33:57;;;;;;;;;15.67;12.67;;;;;22.21;53.74;100654.94;5107768;27;45518;-71
2022/09/02 06:36:24;;;;;;;;;15.67;11.33;;;;;22.11;53.23;100628.84;5100288;27;45393;-68
2022/09/02 06:38:51;;;;;;;;;14.00;10.67;;;;;22.26;53.59;100667.50;5099141;27;45466;-67
2022/09/02 06:41:27;;;;;;;;;11.00;8.67;;;;;22.25;53.27;100673.84;5108834;27;46333;-70
2022/09/02 06:43:54;;;;;;;;;11.00;11.00;;;;;22.21;52.98;100672.16;5097150;27;45441;-69
2022/09/02 06:46:26;;;;;;;;;12.33;9.00;;;;;22.20;53.27;100659.47;5102342;27;45420;-73
2022/09/02 06:48:52;;;;;;;;;12.33;12.33;;;;;22.17;52.97;100654.09;5097529;27;45432;-67
2022/09/02 06:51:24;;;;;;;;;15.33;11.00;;;;;22.27;52.50;100662.94;5106425;27;45965;-68
2022/09/02 06:53:50;;;;;;;;;13.33;10.67;;;;;22.30;52.89;100672.91;5098367;27;45404;-70
2022/09/02 06:56:16;;;;;;;;;11.00;11.00;;;;;22.33;52.46;100656.50;5118516;27;45879;-67
2022/09/02 06:58:41;;;;;;;;;9.67;8.00;;;;;22.26;52.37;100653.00;5101907;27;45636;-73
2022/09/02 07:01:06;;;;;;;;;22.75;22.00;;;;;22.37;52.49;100661.84;5101423;27;46063;-69
2022/09/02 07:06:17;;;;;;;;;6.00;6.00;;;;;22.38;52.17;100649.13;5098663;27;45392;-67
2022/09/02 07:08:43;;;;;;;;;18.33;12.67;;;;;22.37;51.72;100648.25;5096816;27;45467;-72
2022/09/02 07:11:22;;;;;;;;;13.33;13.33;;;;;22.32;51.73;100652.88;5094991;27;47430;-71
2022/09/02 07:13:49;;;;;;;;;12.33;9.67;;;;;22.31;51.47;100661.97;5103584;27;45445;-73
2022/09/02 07:16:18;;;;;;;;;14.00;11.33;;;;;22.24;51.10;100657.56;5101734;27;45297;-68
2022/09/02 07:18:44;;;;;;;;;10.00;10.00;;;;;22.20;51.17;100661.31;5101247;27;45566;-68
2022/09/02 07:21:10;;;;;;;;;8.00;8.00;;;;;22.17;51.02;100664.09;5100081;27;45515;-72
2022/09/02 07:23:36;;;;;;;;;12.33;11.00;;;;;22.20;51.19;100664.03;5102484;27;45435;-72
2022/09/02 07:26:02;;;;;;;;;5.00;5.00;;;;;22.21;50.91;100672.16;5098851;27;45394;-67
2022/09/02 07:28:27;;;;;;;;;10.67;10.67;;;;;22.16;50.93;100645.97;5099721;27;45326;-67
2022/09/02 07:30:54;;;;;;;;;10.33;9.00;;;;;22.40;50.79;100660.88;5097199;27;45597;-71
2022/09/02 07:33:21;;;;;;;;;9.33;9.33;;;;;22.45;50.51;100656.19;5103393;27;45456;-71
2022/09/02 07:35:49;;;;;;;;;13.67;11.33;;;;;22.42;50.36;100624.53;5109756;27;45417;-70
2022/09/02 07:38:14;;;;;;;;;4.67;4.33;;;;;22.40;50.22;100620.91;5098317;27;45511;-74
2022/09/02 07:40:41;;;;;;;;;8.50;8.50;;;;;22.56;49.92;100640.50;5096448;27;46025;-68
2022/09/02 07:43:09;;;;;;;;;10.67;10.67;;;;;22.56;50.05;100645.94;5097487;27;45481;-72
2022/09/02 07:45:36;;;;;;;;;11.67;9.00;;;;;22.58;49.97;100648.63;5103265;27;45377;-71
2022/09/02 07:48:06;;;;;;;;;13.33;13.33;;;;;22.56;49.92;100636.88;5111045;27;45588;-69
2022/09/02 07:50:32;;;;;;;;;13.67;11.33;;;;;22.67;49.33;100644.78;5102512;27;45597;-71
2022/09/02 07:52:57;;;;;;;;;13.33;9.00;;;;;22.73;49.09;100655.50;5105361;27;45411;-67
2022/09/02 07:55:23;;;;;;;;;10.00;9.00;;;;;22.79;48.86;100658.09;5098573;27;45495;-73
2022/09/02 07:57:50;;;;;;;;;8.33;8.33;;;;;22.85;48.43;100660.66;5101720;27;45549;-72
2022/09/02 08:00:18;;;;;;;;;12.67;9.00;;;;;22.85;48.19;100657.03;5099329;27;46262;-72
2022/09/02 08:02:45;;;;;;;;;14.00;10.00;;;;;22.87;47.89;100650.63;5098262;27;45542;-69
2022/09/02 08:05:11;;;;;;;;;11.33;11.00;;;;;22.87;47.61;100630.63;5097905;27;45514;-70
2022/09/02 08:07:36;;;;;;;;;15.67;10.00;;;;;22.92;46.97;100673.19;5095783;27;45518;-69
2022/09/02 08:10:05;;;;;;;;;12.33;9.00;;;;;22.94;47.09;100681.31;5095866;27;45424;-71
2022/09/02 08:12:30;;;;;;;;;13.33;12.33;;;;;22.94;46.87;100668.56;5101884;27;45390;-69
2022/09/02 08:14:57;;;;;;;;;10.00;10.00;;;;;22.91;46.56;100663.22;5104847;27;45240;-70
2022/09/02 08:17:23;;;;;;;;;10.67;8.33;;;;;22.97;46.63;100673.06;5102960;27;45418;-71
2022/09/02 08:19:48;;;;;;;;;11.33;8.67;;;;;23.12;46.15;100686.31;5100968;27;45566;-71
2022/09/02 08:22:14;;;;;;;;;13.33;10.00;;;;;22.99;45.77;100666.63;5102205;27;45658;-70
2022/09/02 08:24:39;;;;;;;;;11.33;7.67;;;;;22.99;45.60;100682.09;5098576;27;45447;-72
2022/09/02 08:27:05;;;;;;;;;11.33;9.67;;;;;23.01;45.88;100682.94;5101692;27;45384;-70
2022/09/02 08:29:30;;;;;;;;;11.00;8.33;;;;;22.87;45.52;100674.22;5099012;27;45912;-68
2022/09/02 08:31:56;;;;;;;;;8.33;7.67;;;;;22.96;45.40;100688.50;5098130;27;45355;-72
2022/09/02 08:34:21;;;;;;;;;10.00;8.00;;;;;23.07;44.78;100712.78;5107380;27;45462;-72
2022/09/02 08:36:47;;;;;;;;;12.33;8.67;;;;;22.92;45.01;100703.16;5098659;27;45719;-71
2022/09/02 08:39:12;;;;;;;;;13.67;12.67;;;;;23.08;45.23;100740.94;5098838;27;45541;-70
2022/09/02 08:42:07;;;;;;;;;8.00;8.00;;;;;23.02;45.00;100746.53;5096117;27;45314;-73
2022/09/02 08:44:36;;;;;;;;;10.67;8.33;;;;;23.00;45.55;100750.16;5105596;27;45494;-67
2022/09/02 08:47:05;;;;;;;;;12.67;11.33;;;;;23.00;45.24;100750.16;5105951;27;45438;-69
2022/09/02 08:49:46;;;;;;;;;12.00;11.33;;;;;22.99;45.38;100737.47;5098914;27;45440;-71
2022/09/02 08:52:21;;;;;;;;;10.67;9.00;;;;;23.00;45.76;100747.44;5095853;27;45512;-69
2022/09/02 08:54:55;;;;;;;;;18.33;13.67;;;;;23.02;46.07;100751.97;5103857;27;45615;-70
2022/09/02 08:57:24;;;;;;;;;10.00;9.67;;;;;22.90;45.73;100729.53;5099078;27;45411;-71
2022/09/02 08:59:50;;;;;;;;;12.33;9.33;;;;;22.99;45.80;100733.84;5100849;27;46134;-71
2022/09/02 09:02:37;;;;;;;;;11.00;10.33;;;;;23.06;45.99;100743.66;5096827;27;45454;-70
2022/09/02 09:05:11;;;;;;;;;17.33;12.67;;;;;23.07;46.42;100748.22;5097349;27;45435;-70
2022/09/02 09:07:48;;;;;;;;;14.00;12.67;;;;;23.00;49.10;100742.00;5095597;27;45506;-71
2022/09/02 09:10:23;;;;;;;;;12.67;11.33;;;;;22.92;51.36;100745.84;5094329;27;46349;-69
2022/09/02 09:13:03;;;;;;;;;19.67;15.33;;;;;22.51;52.12;100696.00;5100885;27;45419;-72
2022/09/02 09:15:28;;;;;;;;;11.67;11.67;;;;;22.80;52.96;100745.22;5099634;27;45421;-71
2022/09/02 09:17:58;;;;;;;;;16.33;15.00;;;;;22.83;53.14;100749.69;5099567;27;45474;-72
2022/09/02 09:20:26;;;;;;;;;18.00;18.00;;;;;22.88;52.83;100745.00;5096441;27;45487;-68
2022/09/02 09:22:57;;;;;;;;;14.33;11.33;;;;;22.90;52.20;100729.53;5096348;27;45470;-70
2022/09/02 09:25:28;;;;;;;;;18.67;16.67;;;;;23.03;53.27;100729.22;5099857;27;45396;-73
2022/09/02 09:28:00;;;;;;;;;10.67;9.33;;;;;23.16;52.09;100738.91;5097392;27;46231;-67
2022/09/02 09:30:26;;;;;;;;;16.00;16.00;;;;;23.27;52.60;100739.53;5098102;27;45647;-69
2022/09/02 09:32:56;;;;;;;;;15.67;14.33;;;;;23.33;51.01;100731.19;5098694;27;45463;-69
2022/09/02 09:35:23;;;;;;;;;18.67;16.33;;;;;23.37;50.04;100737.44;5101810;27;45460;-69
2022/09/02 09:37:54;;;;;;;;;16.67;13.67;;;;;23.24;50.25;100715.06;5099307;27;45530;-71
2022/09/02 09:40:22;;;;;;;;;17.00;12.67;;;;;23.35;49.51;100726.59;5095239;27;46020;-69
2022/09/02 09:42:54;;;;;;;;;10.67;10.67;;;;;23.40;49.68;100729.19;5095936;27;45378;-70
2022/09/02 09:45:33;;;;;;;;;19.67;16.67;;;;;23.48;49.95;100724.41;5109603;27;45452;-74
2022/09/02 09:48:28;;;;;;;;;15.33;13.00;;;;;23.63;49.45;100714.03;5094415;27;45370;-71
2022/09/02 09:50:53;;;;;;;;;20.00;14.00;;;;;23.77;49.66;100710.91;5096262;27;45866;-72
2022/09/02 09:53:20;;;;;;;;;17.67;14.00;;;;;23.85;49.33;100697.97;5100187;27;45534;-74
2022/09/02 09:55:53;;;;;;;;;13.67;11.33;;;;;24.04;48.34;100691.00;5099783;27;45468;-69
2022/09/02 09:58:20;;;;;;;;;18.00;13.67;;;;;24.10;47.92;100685.38;5099212;27;45268;-69
2022/09/02 10:00:45;;;;;;;;;31.25;29.25;;;;;24.27;47.46;100700.34;5097939;27;46046;-68
2022/09/02 10:03:21;;;;;;;;;21.67;18.00;;;;;24.39;46.91;100701.78;5100080;27;45578;-70
2022/09/02 10:05:51;;;;;;;;;12.33;12.33;;;;;24.45;46.55;100701.56;5095422;27;45521;-71
2022/09/02 10:08:21;;;;;;;;;14.67;13.00;;;;;24.51;46.40;100701.38;5095281;27;45418;-70
2022/09/02 10:10:59;;;;;;;;;24.33;22.33;;;;;24.59;45.89;100696.59;5093212;27;46584;-72
2022/09/02 10:13:29;;;;;;;;;21.33;20.00;;;;;24.69;46.29;100690.84;5106576;27;45435;-70
2022/09/02 10:16:19;;;;;;;;;21.33;17.67;;;;;24.73;44.42;100689.78;5098866;27;45367;-69
2022/09/02 10:19:04;;;;;;;;;12.33;12.00;;;;;24.50;44.50;100644.06;5098785;27;45572;-73
2022/09/02 10:22:07;;;;;;;;;15.00;12.67;;;;;24.81;45.22;100679.47;5094809;27;45501;-72
2022/09/02 10:24:41;;;;;;;;;21.33;15.00;;;;;24.89;45.71;100684.69;5111557;27;45486;-69
2022/09/02 10:27:13;;;;;;;;;18.67;14.67;;;;;24.81;44.32;100663.09;5103066;27;45410;-72
2022/09/02 10:29:53;;;;;;;;;20.67;16.33;;;;;24.80;45.49;100656.75;5100709;27;45569;-70
2022/09/02 10:32:46;;;;;;;;;18.75;17.75;;;;;24.94;44.50;100672.66;5098911;27;46158;-73
2022/09/02 10:35:50;;;;;;;;;19.67;18.33;;;;;25.05;44.93;100672.28;5099945;27;45407;-74
2022/09/02 10:38:31;;;;;;;;;16.67;15.00;;;;;25.11;44.45;100682.09;5100857;27;45532;-69
2022/09/02 10:41:08;;;;;;;;;15.67;13.33;;;;;25.14;44.72;100668.31;5097947;27;45576;-71
2022/09/02 10:43:46;;;;;;;;;20.00;16.33;;;;;25.17;44.35;100666.38;5097645;27;45451;-69
2022/09/02 10:46:17;;;;;;;;;21.33;15.00;;;;;25.08;43.94;100653.06;5109283;27;45556;-68
2022/09/02 10:49:00;;;;;;;;;58.25;47.25;;;;;25.20;44.53;100668.13;5102579;27;45415;-69
2022/09/02 10:51:38;;;;;;;;;23.00;20.50;;;;;24.83;43.64;100607.44;5108178;27;45560;-70
2022/09/02 10:54:18;;;;;;;;;23.67;19.67;;;;;25.20;44.21;100659.91;5098044;27;46463;-68
2022/09/02 10:57:02;;;;;;;;;20.00;15.00;;;;;25.09;44.10;100657.53;5100827;27;45385;-68
2022/09/02 10:59:48;;;;;;;;;18.33;17.33;;;;;24.95;45.33;100658.03;5106213;27;45545;-71
2022/09/02 11:02:25;;;;;;;;;18.33;18.00;;;;;24.73;45.87;100641.50;5100086;27;45539;-70
2022/09/02 11:04:58;;;;;;;;;15.00;15.00;;;;;24.78;46.14;100655.00;5099713;27;45504;-71
2022/09/02 11:07:28;;;;;;;;;20.00;17.25;;;;;24.77;46.35;100656.84;5096938;27;45503;-68
2022/09/02 11:10:02;;;;;;;;;19.67;19.67;;;;;24.67;45.45;100636.25;5097435;27;45253;-74
2022/09/02 11:12:37;;;;;;;;;16.00;14.00;;;;;24.86;45.03;100663.81;5097241;27;45380;-70
2022/09/02 11:15:17;;;;;;;;;16.00;14.33;;;;;24.88;44.31;100655.56;5107174;27;46184;-71
2022/09/02 11:18:07;;;;;;;;;14.33;12.33;;;;;24.81;43.40;100661.28;5097239;27;45457;-69
2022/09/02 11:20:43;;;;;;;;;24.75;23.25;;;;;24.63;44.38;100637.28;5100044;27;45403;-70
2022/09/02 11:23:33;;;;;;;;;23.00;19.75;;;;;24.75;45.60;100650.53;5101358;27;45364;-69
2022/09/02 11:26:10;;;;;;;;;17.67;14.67;;;;;24.66;44.74;100650.84;5100959;27;45374;-74
2022/09/02 11:28:58;;;;;;;;;25.00;17.00;;;;;24.52;45.12;100629.44;5101783;27;45450;-70